createdAt,value
2018-04-24T00:01:35.327Z,1.90
2018-04-24T00:04:03.462Z,2.10
2018-04-24T00:06:32.291Z,2.00
2018-04-24T00:09:00.562Z,1.73
2018-04-24T00:11:29.357Z,2.20
2018-04-24T00:13:58.236Z,2.07
2018-04-24T00:16:27.044Z,1.53
2018-04-24T00:18:55.639Z,2.10
2018-04-24T00:21:23.761Z,1.97
2018-04-24T00:23:52.116Z,2.50
2018-04-24T00:26:21.689Z,1.80
2018-04-24T00:28:50.025Z,1.80
2018-04-24T00:31:18.729Z,2.17
2018-04-24T00:33:47.527Z,2.10
2018-04-24T00:36:16.904Z,2.20
2018-04-24T00:38:46.316Z,1.87
2018-04-24T00:41:14.457Z,1.80
2018-04-24T00:43:44.000Z,2.10
2018-04-24T00:46:12.332Z,2.03
2018-04-24T00:48:42.087Z,2.40
2018-04-24T00:51:10.950Z,2.57
2018-04-24T00:53:41.042Z,2.30
2018-04-24T00:56:09.184Z,3.43
2018-04-24T00:58:38.110Z,2.73
2018-04-24T01:01:06.200Z,2.90
2018-04-24T01:03:35.136Z,2.80
2018-04-24T01:06:03.438Z,2.40
2018-04-24T01:08:32.145Z,3.00
2018-04-24T01:11:00.253Z,2.73
2018-04-24T01:13:28.351Z,2.93
2018-04-24T01:15:56.696Z,1.83
2018-04-24T01:18:25.620Z,2.70
2018-04-24T01:20:53.749Z,2.30
2018-04-24T01:23:22.019Z,2.60
2018-04-24T01:25:51.551Z,2.40
2018-04-24T01:28:20.407Z,2.47
2018-04-24T01:30:49.669Z,2.33
2018-04-24T01:33:17.987Z,2.90
2018-04-24T01:35:46.315Z,2.20
2018-04-24T01:38:15.616Z,2.30
2018-04-24T01:40:43.896Z,2.03
2018-04-24T01:43:12.894Z,2.17
2018-04-24T01:45:42.672Z,2.83
2018-04-24T01:48:12.501Z,2.90
2018-04-24T01:50:41.570Z,2.83
2018-04-24T01:53:09.875Z,2.37
2018-04-24T01:55:38.081Z,2.67
2018-04-24T01:58:06.240Z,2.90
2018-04-24T02:00:36.890Z,2.50
2018-04-24T02:03:04.984Z,2.77
2018-04-24T02:05:33.060Z,2.67
2018-04-24T02:08:01.979Z,2.77
2018-04-24T02:10:30.168Z,3.20
2018-04-24T02:12:59.654Z,3.17
2018-04-24T02:15:28.100Z,3.10
2018-04-24T02:17:57.788Z,2.47
2018-04-24T02:20:27.925Z,3.10
2018-04-24T02:22:57.385Z,2.90
2018-04-24T02:25:26.125Z,2.43
2018-04-24T02:27:54.427Z,3.20
2018-04-24T02:30:23.567Z,3.47
2018-04-24T02:32:51.665Z,3.03
2018-04-24T02:35:20.544Z,2.93
2018-04-24T02:37:48.624Z,2.77
2018-04-24T02:40:17.123Z,2.80
2018-04-24T02:42:45.400Z,2.73
2018-04-24T02:45:14.893Z,2.93
2018-04-24T02:47:43.639Z,3.13
2018-04-24T02:50:15.241Z,3.23
2018-04-24T02:52:44.031Z,4.50
2018-04-24T02:55:12.190Z,3.10
2018-04-24T02:57:41.074Z,3.37
2018-04-24T03:00:09.179Z,3.10
2018-04-24T03:02:37.705Z,3.30
2018-04-24T03:05:06.064Z,3.90
2018-04-24T03:07:35.501Z,3.10
2018-04-24T03:10:03.887Z,3.30
2018-04-24T03:12:32.043Z,3.77
2018-04-24T03:15:00.939Z,3.43
2018-04-24T03:17:30.868Z,3.80
2018-04-24T03:19:59.165Z,3.63
2018-04-24T03:22:28.875Z,3.97
2018-04-24T03:24:58.862Z,3.77
2018-04-24T03:27:27.736Z,3.90
2018-04-24T03:29:56.316Z,3.80
2018-04-24T03:32:25.091Z,3.60
2018-04-24T03:34:53.484Z,4.03
2018-04-24T03:37:22.311Z,4.27
2018-04-24T03:39:55.110Z,4.60
2018-04-24T03:42:23.777Z,5.00
2018-04-24T03:44:51.914Z,4.50
2018-04-24T03:47:21.602Z,4.90
2018-04-24T03:49:49.675Z,4.60
2018-04-24T03:52:17.974Z,4.20
2018-04-24T03:54:46.880Z,4.80
2018-04-24T03:57:15.421Z,4.83
2018-04-24T03:59:44.252Z,3.90
2018-04-24T04:02:13.080Z,5.50
2018-04-24T04:04:42.223Z,4.70
2018-04-24T04:07:11.467Z,5.10
2018-04-24T04:09:40.857Z,5.03
2018-04-24T04:12:09.751Z,4.80
2018-04-24T04:14:37.837Z,5.27
2018-04-24T04:17:23.785Z,4.73
2018-04-24T04:20:10.207Z,4.33
2018-04-24T04:22:56.743Z,4.87
2018-04-24T04:25:26.864Z,4.57
2018-04-24T04:27:55.825Z,4.37
2018-04-24T04:30:24.535Z,4.80
2018-04-24T04:32:54.196Z,4.97
2018-04-24T04:35:22.420Z,4.90
2018-04-24T04:37:51.599Z,4.10
2018-04-24T04:40:20.492Z,4.10
2018-04-24T04:42:48.599Z,4.43
2018-04-24T04:45:17.491Z,3.87
2018-04-24T04:47:46.388Z,4.63
2018-04-24T04:50:14.608Z,3.93
2018-04-24T04:52:43.139Z,4.20
2018-04-24T04:55:12.000Z,3.70
2018-04-24T04:57:40.777Z,4.30
2018-04-24T05:00:09.536Z,3.40
2018-04-24T05:02:37.745Z,3.50
2018-04-24T05:05:06.624Z,3.90
2018-04-24T05:07:35.532Z,4.10
2018-04-24T05:10:03.861Z,4.40
2018-04-24T05:12:32.371Z,4.03
2018-04-24T05:15:01.438Z,4.50
2018-04-24T05:17:30.372Z,4.50
2018-04-24T05:19:59.097Z,4.00
2018-04-24T05:22:27.306Z,3.77
2018-04-24T05:24:56.140Z,3.40
2018-04-24T05:27:24.985Z,4.23
2018-04-24T05:29:53.439Z,3.37
2018-04-24T05:32:21.580Z,3.67
2018-04-24T05:34:50.495Z,3.90
2018-04-24T05:37:18.601Z,4.70
2018-04-24T05:39:46.789Z,4.37
2018-04-24T05:42:15.096Z,3.53
2018-04-24T05:44:44.053Z,4.30
2018-04-24T05:47:13.033Z,4.20
2018-04-24T05:49:41.355Z,3.50
2018-04-24T05:52:09.621Z,4.87
2018-04-24T05:54:38.577Z,3.80
2018-04-24T05:57:07.711Z,3.63
2018-04-24T05:59:35.802Z,3.20
2018-04-24T06:02:04.667Z,5.30
2018-04-24T06:04:35.712Z,5.87
2018-04-24T06:07:04.328Z,3.43
2018-04-24T06:09:32.550Z,3.83
2018-04-24T06:12:00.585Z,3.33
2018-04-24T06:14:28.712Z,3.90
2018-04-24T06:16:59.956Z,3.53
2018-04-24T06:19:28.056Z,3.40
2018-04-24T06:21:56.828Z,3.50
2018-04-24T06:24:25.800Z,3.43
2018-04-24T06:26:54.538Z,3.27
2018-04-24T06:29:22.760Z,3.30
2018-04-24T06:31:50.867Z,4.03
2018-04-24T06:34:19.085Z,3.53
2018-04-24T06:36:47.943Z,3.60
2018-04-24T06:39:16.291Z,3.70
2018-04-24T06:41:47.494Z,3.77
2018-04-24T06:44:15.656Z,3.20
2018-04-24T06:46:44.580Z,3.70
2018-04-24T06:49:13.171Z,3.77
2018-04-24T06:51:42.902Z,3.60
2018-04-24T06:54:10.988Z,3.33
2018-04-24T06:56:39.812Z,3.90
2018-04-24T06:59:07.873Z,3.73
2018-04-24T07:01:36.703Z,3.60
2018-04-24T07:04:05.605Z,3.63
2018-04-24T07:06:33.701Z,3.80
2018-04-24T07:09:02.152Z,3.40
2018-04-24T07:11:31.880Z,3.73
2018-04-24T07:14:00.128Z,3.77
2018-04-24T07:16:28.935Z,3.70
2018-04-24T07:18:59.168Z,4.00
2018-04-24T07:21:27.513Z,4.07
2018-04-24T07:23:56.307Z,3.90
2018-04-24T07:26:25.629Z,4.27
2018-04-24T07:28:54.508Z,3.70
2018-04-24T07:31:22.896Z,3.57
2018-04-24T07:33:52.526Z,4.47
2018-04-24T07:36:20.863Z,3.87
2018-04-24T07:38:49.679Z,4.20
2018-04-24T07:41:17.980Z,3.40
2018-04-24T07:43:46.252Z,3.97
2018-04-24T07:46:14.508Z,3.77
2018-04-24T07:48:43.511Z,3.43
2018-04-24T07:51:11.735Z,4.17
2018-04-24T07:53:40.219Z,3.90
2018-04-24T07:56:09.329Z,4.00
2018-04-24T07:58:37.471Z,4.20
2018-04-24T08:01:05.808Z,3.47
2018-04-24T08:03:34.008Z,3.47
2018-04-24T08:06:02.871Z,4.70
2018-04-24T08:08:31.780Z,4.17
2018-04-24T08:11:00.031Z,3.90
2018-04-24T08:13:28.920Z,4.43
2018-04-24T08:15:58.600Z,3.80
2018-04-24T08:18:27.441Z,3.93
2018-04-24T08:20:56.328Z,4.47
2018-04-24T08:23:24.579Z,3.80
2018-04-24T08:25:53.316Z,4.40
2018-04-24T08:28:22.215Z,4.20
2018-04-24T08:30:51.074Z,4.20
2018-04-24T08:33:19.732Z,4.33
2018-04-24T08:35:47.829Z,4.70
2018-04-24T08:38:16.689Z,4.30
2018-04-24T08:40:45.819Z,4.33
2018-04-24T08:43:14.183Z,5.43
2018-04-24T08:45:43.265Z,4.30
2018-04-24T08:48:12.164Z,4.30
2018-04-24T08:50:42.117Z,4.90
2018-04-24T08:53:11.153Z,5.00
2018-04-24T08:55:40.625Z,6.00
2018-04-24T08:58:10.088Z,5.13
2018-04-24T09:00:38.600Z,5.70
2018-04-24T09:03:07.460Z,5.17
2018-04-24T09:05:35.534Z,5.60
2018-04-24T09:08:04.410Z,5.83
2018-04-24T09:10:34.025Z,5.67
2018-04-24T09:13:02.799Z,5.63
2018-04-24T09:15:30.889Z,5.07
2018-04-24T09:17:59.780Z,5.37
2018-04-24T09:20:28.748Z,6.27
2018-04-24T09:22:57.269Z,7.10
2018-04-24T09:25:26.155Z,6.57
2018-04-24T09:27:55.144Z,6.90
2018-04-24T09:30:24.636Z,6.37
2018-04-24T09:32:55.046Z,6.23
2018-04-24T09:35:28.708Z,6.70
2018-04-24T09:37:58.990Z,7.03
2018-04-24T09:40:27.772Z,7.33
2018-04-24T09:42:56.280Z,7.53
2018-04-24T09:45:24.551Z,7.33
2018-04-24T09:47:53.349Z,7.43
2018-04-24T09:50:21.431Z,7.20
2018-04-24T09:52:49.844Z,7.80
2018-04-24T09:55:17.955Z,7.70
2018-04-24T09:57:47.343Z,7.90
2018-04-24T10:00:22.411Z,8.17
2018-04-24T10:02:51.473Z,9.93
2018-04-24T10:05:19.853Z,8.33
2018-04-24T10:07:48.838Z,7.83
2018-04-24T10:10:16.981Z,7.80
2018-04-24T10:12:45.849Z,8.80
2018-04-24T10:15:14.880Z,7.80
2018-04-24T10:17:43.014Z,8.20
2018-04-24T10:20:11.164Z,7.60
2018-04-24T10:22:40.256Z,7.20
2018-04-24T10:25:09.152Z,7.57
2018-04-24T10:27:38.109Z,7.60
2018-04-24T10:30:07.333Z,8.20
2018-04-24T10:32:35.420Z,8.40
2018-04-24T10:35:05.300Z,8.87
2018-04-24T10:37:34.156Z,9.23
2018-04-24T10:40:02.719Z,8.57
2018-04-24T10:42:31.057Z,10.63
2018-04-24T10:44:59.324Z,10.33
2018-04-24T10:47:28.496Z,12.07
2018-04-24T10:49:56.598Z,11.03
2018-04-24T10:52:25.129Z,12.10
2018-04-24T10:54:53.209Z,12.10
2018-04-24T10:57:21.346Z,11.07
2018-04-24T10:59:50.470Z,11.37
2018-04-24T11:02:18.728Z,10.87
2018-04-24T11:04:46.844Z,9.97
2018-04-24T11:07:15.765Z,11.50
2018-04-24T11:09:44.019Z,10.47
2018-04-24T11:12:15.824Z,11.00
2018-04-24T11:14:44.126Z,11.97
2018-04-24T11:17:12.257Z,11.80
2018-04-24T11:19:41.367Z,11.37
2018-04-24T11:22:09.459Z,11.90
2018-04-24T11:24:38.312Z,11.43
2018-04-24T11:27:06.387Z,13.00
2018-04-24T11:29:35.204Z,12.53
2018-04-24T11:32:03.320Z,13.67
2018-04-24T11:34:33.747Z,12.60
2018-04-24T11:37:02.827Z,15.10
2018-04-24T11:39:30.927Z,13.93
2018-04-24T11:41:59.306Z,13.27
2018-04-24T11:44:27.420Z,11.23
2018-04-24T11:46:55.649Z,12.50
2018-04-24T11:49:25.834Z,11.00
2018-04-24T11:51:54.598Z,11.00
2018-04-24T11:54:23.120Z,10.70
2018-04-24T11:56:51.412Z,9.20
2018-04-24T11:59:19.632Z,9.60
2018-04-24T12:01:48.412Z,8.50
2018-04-24T12:04:16.525Z,8.40
2018-04-24T12:06:46.192Z,8.90
2018-04-24T12:09:14.327Z,7.90
2018-04-24T12:11:42.709Z,7.30
2018-04-24T12:14:11.637Z,7.80
2018-04-24T12:16:44.531Z,9.03
2018-04-24T12:19:12.651Z,8.43
2018-04-24T12:21:40.826Z,8.73
2018-04-24T12:24:09.940Z,8.67
2018-04-24T12:26:38.100Z,8.23
2018-04-24T12:29:06.948Z,8.23
2018-04-24T12:31:36.150Z,8.50
2018-04-24T12:34:05.970Z,7.93
2018-04-24T12:36:34.884Z,8.40
2018-04-24T12:39:02.951Z,8.70
2018-04-24T12:41:33.318Z,8.43
2018-04-24T12:44:01.625Z,9.20
2018-04-24T12:46:29.701Z,9.20
2018-04-24T12:48:58.361Z,9.10
2018-04-24T12:51:26.451Z,9.23
2018-04-24T12:53:54.551Z,8.70
2018-04-24T12:56:22.996Z,9.60
2018-04-24T12:58:53.437Z,8.43
2018-04-24T13:01:21.740Z,9.60
2018-04-24T13:03:50.081Z,9.60
2018-04-24T13:06:18.499Z,9.87
2018-04-24T13:08:47.318Z,8.83
2018-04-24T13:11:15.475Z,8.70
2018-04-24T13:13:44.472Z,9.60
2018-04-24T13:16:15.467Z,10.03
2018-04-24T13:18:43.756Z,9.70
2018-04-24T13:21:11.891Z,10.67
2018-04-24T13:23:40.003Z,10.00
2018-04-24T13:26:08.074Z,9.60
2018-04-24T13:28:36.220Z,10.63
2018-04-24T13:31:04.318Z,11.57
2018-04-24T13:33:32.661Z,11.00
2018-04-24T13:36:00.944Z,9.83
2018-04-24T13:38:29.038Z,9.90
2018-04-24T13:40:57.792Z,10.63
2018-04-24T13:43:26.102Z,9.63
2018-04-24T13:45:54.408Z,9.73
2018-04-24T13:48:25.181Z,10.30
2018-04-24T13:50:54.153Z,9.63
2018-04-24T13:53:22.671Z,9.77
2018-04-24T13:55:50.929Z,10.27
2018-04-24T13:58:19.259Z,10.20
2018-04-24T14:00:48.006Z,10.43
2018-04-24T14:03:17.064Z,10.63
2018-04-24T14:05:45.187Z,9.53
2018-04-24T14:08:13.495Z,9.10
2018-04-24T14:10:41.612Z,11.37
2018-04-24T14:13:09.817Z,10.30
2018-04-24T14:15:38.010Z,10.00
2018-04-24T14:18:06.877Z,10.10
2018-04-24T14:20:34.972Z,9.83
2018-04-24T14:23:04.657Z,9.03
2018-04-24T14:25:33.575Z,9.87
2018-04-24T14:28:02.150Z,11.70
2018-04-24T14:30:30.939Z,11.43
2018-04-24T14:32:59.810Z,9.80
2018-04-24T14:35:28.325Z,19.50
2018-04-24T14:37:57.350Z,12.20
2018-04-24T14:40:27.608Z,9.90
2018-04-24T14:42:55.969Z,9.23
2018-04-24T14:45:24.769Z,9.57
2018-04-24T14:47:53.683Z,11.53
2018-04-24T14:50:22.248Z,9.30
2018-04-24T14:52:51.753Z,10.10
2018-04-24T14:55:20.689Z,10.43
2018-04-24T14:57:48.771Z,10.43
2018-04-24T15:00:17.702Z,10.23
2018-04-24T15:02:46.999Z,10.90
2018-04-24T15:05:19.325Z,10.10
2018-04-24T15:07:48.411Z,9.20
2018-04-24T15:10:16.692Z,10.23
2018-04-24T15:12:45.028Z,9.60
2018-04-24T15:15:13.489Z,9.03
2018-04-24T15:17:44.872Z,9.80
2018-04-24T15:20:13.008Z,9.70
2018-04-24T15:22:41.871Z,10.10
2018-04-24T15:25:10.097Z,10.17
2018-04-24T15:27:38.970Z,9.93
2018-04-24T15:30:07.281Z,10.47
2018-04-24T15:32:35.626Z,9.43
2018-04-24T15:35:03.939Z,9.87
2018-04-24T15:37:31.949Z,9.70
2018-04-24T15:40:00.771Z,8.87
2018-04-24T15:42:28.877Z,13.67
2018-04-24T15:44:56.971Z,10.50
2018-04-24T15:47:25.047Z,10.10
2018-04-24T15:49:53.484Z,10.10
2018-04-24T15:52:22.353Z,9.87
2018-04-24T15:54:50.581Z,9.87
2018-04-24T15:57:19.660Z,9.30
2018-04-24T15:59:49.807Z,9.20
2018-04-24T16:02:18.260Z,8.93
2018-04-24T16:04:46.818Z,9.63
2018-04-24T16:07:15.080Z,7.90
2018-04-24T16:09:43.413Z,15.73
2018-04-24T16:12:12.546Z,9.30
2018-04-24T16:14:41.111Z,8.60
2018-04-24T16:17:09.379Z,12.60
2018-04-24T16:19:38.960Z,8.60
2018-04-24T16:22:08.309Z,8.80
2018-04-24T16:24:36.824Z,7.67
2018-04-24T16:27:05.716Z,8.97
2018-04-24T16:29:37.341Z,8.63
2018-04-24T16:32:06.080Z,7.90
2018-04-24T16:34:34.283Z,8.50
2018-04-24T16:37:03.197Z,7.90
2018-04-24T16:39:31.600Z,7.97
2018-04-24T16:42:00.411Z,8.00
2018-04-24T16:44:29.774Z,8.00
2018-04-24T16:46:58.118Z,8.00
2018-04-24T16:49:26.408Z,8.50
2018-04-24T16:51:55.292Z,9.10
2018-04-24T16:54:25.848Z,7.70
2018-04-24T16:56:54.457Z,8.30
2018-04-24T16:59:28.576Z,8.47
2018-04-24T17:01:56.884Z,7.70
2018-04-24T17:04:26.965Z,8.10
2018-04-24T17:06:55.973Z,8.10
2018-04-24T17:09:24.821Z,8.10
2018-04-24T17:11:55.463Z,8.07
2018-04-24T17:14:24.323Z,9.23
2018-04-24T17:16:53.277Z,9.03
2018-04-24T17:19:21.604Z,8.00
2018-04-24T17:21:54.055Z,8.80
2018-04-24T17:24:22.584Z,8.63
2018-04-24T17:26:50.900Z,9.20
2018-04-24T17:29:19.242Z,8.00
2018-04-24T17:31:48.032Z,8.40
2018-04-24T17:34:16.847Z,8.33
2018-04-24T17:36:45.048Z,8.00
2018-04-24T17:39:14.196Z,9.57
2018-04-24T17:41:42.590Z,7.60
2018-04-24T17:44:12.873Z,8.70
2018-04-24T17:46:41.043Z,8.47
2018-04-24T17:49:10.571Z,9.30
2018-04-24T17:51:38.876Z,8.83
2018-04-24T17:54:07.961Z,8.40
2018-04-24T17:56:36.045Z,8.30
2018-04-24T17:59:05.144Z,9.00
2018-04-24T18:01:34.088Z,8.20
2018-04-24T18:04:02.898Z,8.60
2018-04-24T18:06:32.117Z,10.13
2018-04-24T18:09:03.049Z,8.33
2018-04-24T18:11:32.880Z,8.50
2018-04-24T18:14:01.292Z,9.80
2018-04-24T18:16:29.621Z,8.90
2018-04-24T18:19:01.165Z,8.00
2018-04-24T18:21:29.571Z,9.37
2018-04-24T18:23:58.280Z,8.67
2018-04-24T18:26:26.556Z,8.97
2018-04-24T18:28:55.631Z,8.90
2018-04-24T18:31:24.020Z,8.20
2018-04-24T18:33:52.792Z,8.80
2018-04-24T18:36:21.244Z,8.40
2018-04-24T18:38:49.738Z,9.07
2018-04-24T18:41:19.529Z,7.60
2018-04-24T18:43:47.860Z,7.97
2018-04-24T18:46:16.894Z,8.90
2018-04-24T18:48:45.425Z,9.03
2018-04-24T18:51:14.312Z,9.43
2018-04-24T18:53:43.515Z,8.57
2018-04-24T18:56:11.894Z,9.00
2018-04-24T18:58:40.191Z,9.93
2018-04-24T19:01:09.050Z,9.57
2018-04-24T19:03:39.336Z,9.00
2018-04-24T19:06:07.457Z,10.00
2018-04-24T19:08:37.233Z,9.37
2018-04-24T19:11:05.579Z,9.47
2018-04-24T19:13:34.716Z,8.80
2018-04-24T19:16:06.369Z,8.17
2018-04-24T19:18:40.985Z,9.47
2018-04-24T19:21:09.186Z,9.37
2018-04-24T19:23:38.004Z,9.33
2018-04-24T19:26:08.229Z,8.90
2018-04-24T19:28:37.640Z,9.17
2018-04-24T19:31:12.640Z,9.43
2018-04-24T19:33:40.853Z,8.37
2018-04-24T19:36:10.013Z,9.17
2018-04-24T19:38:39.642Z,9.50
2018-04-24T19:41:14.260Z,8.43
2018-04-24T19:43:44.649Z,8.87
2018-04-24T19:46:13.568Z,8.83
2018-04-24T19:48:50.308Z,8.60
2018-04-24T19:51:20.120Z,9.47
2018-04-24T19:53:48.631Z,9.47
2018-04-24T19:56:19.159Z,9.10
2018-04-24T19:58:49.893Z,8.93
2018-04-24T20:01:18.034Z,8.57
2018-04-24T20:03:47.301Z,8.63
2018-04-24T20:06:17.957Z,9.60
2018-04-24T20:08:48.228Z,8.83
2018-04-24T20:11:20.740Z,8.43
2018-04-24T20:13:49.257Z,8.83
2018-04-24T20:16:19.061Z,8.97
2018-04-24T20:18:47.969Z,8.63
2018-04-24T20:21:18.427Z,8.33
2018-04-24T20:23:48.276Z,9.77
2018-04-24T20:26:21.179Z,10.73
2018-04-24T20:28:50.309Z,10.17
2018-04-24T20:31:18.704Z,9.97
2018-04-24T20:33:48.935Z,10.97
2018-04-24T20:36:18.288Z,9.27
2018-04-24T20:38:48.705Z,9.63
2018-04-24T20:41:19.042Z,9.53
2018-04-24T20:43:48.037Z,9.90
2018-04-24T20:46:19.837Z,9.77
2018-04-24T20:48:48.264Z,9.87
2018-04-24T20:51:19.045Z,9.23
2018-04-24T20:53:47.924Z,9.53
2018-04-24T20:56:23.903Z,17.53
2018-04-24T20:58:53.103Z,18.53
2018-04-24T21:01:25.881Z,10.50
2018-04-24T21:03:54.984Z,13.03
2018-04-24T21:06:23.172Z,11.30
2018-04-24T21:08:52.135Z,9.60
2018-04-24T21:11:20.326Z,9.80
2018-04-24T21:13:50.923Z,11.80
2018-04-24T21:16:19.021Z,12.00
2018-04-24T21:18:47.334Z,13.30
2018-04-24T21:21:15.680Z,9.20
2018-04-24T21:23:45.360Z,24.50
2018-04-24T21:26:14.319Z,11.87
2018-04-24T21:28:42.631Z,10.47
2018-04-24T21:31:11.128Z,10.33
2018-04-24T21:33:39.233Z,11.07
2018-04-24T21:36:08.314Z,11.43
2018-04-24T21:38:36.677Z,11.23
2018-04-24T21:41:05.439Z,11.67
2018-04-24T21:43:33.526Z,11.57
2018-04-24T21:46:03.519Z,11.87
2018-04-24T21:48:33.327Z,12.20
2018-04-24T21:51:02.437Z,12.17
2018-04-24T21:53:30.744Z,11.33
2018-04-24T21:55:58.888Z,12.70
2018-04-24T21:58:27.771Z,12.83
2018-04-24T22:00:57.179Z,12.23
2018-04-24T22:03:25.262Z,13.27
2018-04-24T22:05:53.372Z,14.80
2018-04-24T22:08:22.240Z,12.63
2018-04-24T22:10:50.508Z,11.57
2018-04-24T22:13:18.667Z,12.90
2018-04-24T22:15:47.603Z,19.97
2018-04-24T22:18:16.448Z,16.47
2018-04-24T22:20:45.696Z,17.27
2018-04-24T22:23:15.900Z,12.97
2018-04-24T22:25:44.026Z,12.07
2018-04-24T22:28:12.125Z,17.30
2018-04-24T22:30:40.480Z,14.63
2018-04-24T22:33:09.608Z,13.23
2018-04-24T22:35:37.748Z,14.60
2018-04-24T22:38:06.119Z,13.43
2018-04-24T22:40:34.537Z,13.20
2018-04-24T22:43:02.586Z,12.90
2018-04-24T22:45:30.767Z,13.77
2018-04-24T22:48:00.091Z,12.90
2018-04-24T22:50:28.275Z,13.60
2018-04-24T22:52:56.435Z,13.57
2018-04-24T22:55:24.531Z,13.47
2018-04-24T22:57:52.635Z,14.50
2018-04-24T23:00:20.950Z,13.70
2018-04-24T23:02:49.131Z,13.10
2018-04-24T23:05:17.393Z,13.73
2018-04-24T23:07:46.265Z,12.77
2018-04-24T23:10:14.359Z,14.17
2018-04-24T23:13:00.968Z,13.93
2018-04-24T23:15:47.244Z,13.23
2018-04-24T23:18:32.893Z,12.30
2018-04-24T23:21:02.064Z,12.47
2018-04-24T23:23:31.119Z,12.43
2018-04-24T23:25:59.941Z,11.67
2018-04-24T23:28:29.724Z,13.10
2018-04-24T23:30:57.800Z,12.80
2018-04-24T23:33:26.600Z,11.37
2018-04-24T23:35:54.679Z,10.33
2018-04-24T23:38:22.779Z,11.80
2018-04-24T23:40:51.838Z,9.80
2018-04-24T23:43:19.918Z,10.07
2018-04-24T23:45:48.008Z,10.10
2018-04-24T23:48:21.474Z,10.60
2018-04-24T23:50:50.257Z,10.90
2018-04-24T23:53:19.552Z,9.60
2018-04-24T23:55:47.636Z,10.77
2018-04-24T23:58:16.471Z,9.60
